Valdosta, GA

9:20 AM EST en Enero 27, 2015 (GMT -0500)
Valdosta Regional | Change Station
CLOSE
Current Station
Aeropuerto
Location: Valdosta Regional,
Altura: 203 ft
Estaciones meteorológicas cercanas
Aviso en curso: Flood Warning

Alt 203 ft 30.78 °N, 83.27 °W | Updated 27 minutes ago

Despejado
Despejado
44 ° F
Sensación térmica 42 ° F
N
4
Viento Variable Viento desde Variable

Hoy
Alta -- | Baja -- ° F
--% Posibilidad de precipitaciones
Ayer
Alta -- | Baja -- ° F
Precip. -- pul
7:27 AM 6:04 PM
Cuarto creciente, 54% visible
Presión 30.02 pul
Visibilidad 10.0 Millas
Nubes Despejado
Vientos helados 42 ° F
Punto de rocío 37 ° F
Humedad 76%
Precipitaciones 0.00 pul
Espesor de la nieve No disponible.
UV 1 de una escala de 12
Polen 2.60 de una escala de 12
Calidad del aire No disponible.
Flu Activity No disponible.
METAR KVLD 271353Z VRB03KT 10SM CLR 07/03 A2999 RMK AO2 SLP165 T00670028

More Conditions Fewer Conditions

Presión 30.02 pul
Visibilidad 10.0 Millas
Nubes Despejado
Vientos helados 42 ° F
Punto de rocío 37 ° F
Humedad 76%
Precipitaciones 0.00 pul
Espesor de la nieve No disponible.
UV 1 de una escala de 12
Polen 2.60 de una escala de 12
Calidad del aire No disponible.
Flu Activity No disponible.
METAR KVLD 271353Z VRB03KT 10SM CLR 07/03 A2999 RMK AO2 SLP165 T00670028

More Conditions Fewer Conditions

10-Day Weather Forecast

Almanac

Astronomía

Jan. 27, 2015 Salida Puesta
Hora real
Crepúsculo civil
Crepúsculo náutico
Crepúsculo astronómico
Luna
Horas de luz
Horas de luz
Tomorrow will be .
, % of the Moon is Illuminated

Extremos de hoy

Máximos del estado Bajos del estado

Community

WunderPhotos

Upload Photos

1,790,648 ¡fotos cargadas!

WunderBlogs® & News

Nearby

Calidad del aire

  Calidad del aire Índice AQ Contaminante
Not available.

Grosos de nieve

Estación Profundido Altura

Actividad de terremotos

Ciudad Distance Mag. Tiempo y dato
Magnitud mínima muestra es 2,5.

Temperaturas de aguas costeras

Lugar Temperatura

Estaciones meteorológicas cercanas